createdAt,value
2023-02-11T00:00:07.386Z,6.29
2023-02-11T00:03:10.518Z,6.22
2023-02-11T00:06:13.210Z,6.11
2023-02-11T00:09:17.148Z,6.32
2023-02-11T00:12:19.764Z,6.31
2023-02-11T00:15:22.648Z,6.29
2023-02-11T00:18:25.354Z,6.25
2023-02-11T00:21:28.568Z,6.34
2023-02-11T00:24:32.600Z,6.25
2023-02-11T00:27:35.216Z,6.12
2023-02-11T00:30:38.009Z,6.21
2023-02-11T00:33:40.707Z,6.11
2023-02-11T00:36:43.532Z,6.10
2023-02-11T00:39:47.501Z,6.15
2023-02-11T00:42:50.082Z,6.01
2023-02-11T00:45:52.999Z,5.85
2023-02-11T00:48:57.657Z,6.09
2023-02-11T00:52:00.261Z,6.07
2023-02-11T00:55:04.339Z,6.09
2023-02-11T00:58:06.967Z,6.14
2023-02-11T01:01:09.610Z,6.17
2023-02-11T01:04:12.215Z,6.11
2023-02-11T01:07:14.830Z,6.04
2023-02-11T01:10:18.910Z,6.14
2023-02-11T01:13:21.489Z,6.09
2023-02-11T01:16:24.254Z,6.17
2023-02-11T01:19:26.910Z,6.18
2023-02-11T01:22:29.496Z,5.97
2023-02-11T01:25:33.429Z,6.00
2023-02-11T01:28:36.130Z,5.95
2023-02-11T01:31:38.900Z,6.13
2023-02-11T01:34:41.692Z,6.15
2023-02-11T01:37:44.328Z,6.22
2023-02-11T01:40:53.937Z,6.12
2023-02-11T01:43:56.534Z,6.17
2023-02-11T01:46:59.202Z,6.14
2023-02-11T01:50:03.915Z,6.17
2023-02-11T01:53:20.592Z,6.17
2023-02-11T01:56:51.682Z,6.22
2023-02-11T02:00:09.065Z,6.22
2023-02-11T02:03:16.422Z,6.20
2023-02-11T02:06:23.794Z,6.21
2023-02-11T02:09:29.528Z,6.28
2023-02-11T02:12:33.542Z,6.15
2023-02-11T02:15:38.344Z,6.13
2023-02-11T02:18:49.763Z,6.28
2023-02-11T02:22:21.079Z,6.29
2023-02-11T02:25:47.311Z,6.19
2023-02-11T02:29:49.687Z,6.21
2023-02-11T02:33:21.609Z,6.28
2023-02-11T02:36:33.113Z,6.58
2023-02-11T02:39:38.019Z,6.37
2023-02-11T02:42:42.083Z,6.47
2023-02-11T02:45:44.832Z,6.46
2023-02-11T02:48:50.482Z,6.41
2023-02-11T02:52:15.508Z,6.39
2023-02-11T02:55:27.812Z,6.53
2023-02-11T02:59:02.352Z,6.60
2023-02-11T03:02:13.065Z,6.47
2023-02-11T03:05:22.582Z,6.51
2023-02-11T03:08:33.403Z,6.51
2023-02-11T03:11:38.132Z,6.55
2023-02-11T03:14:42.360Z,6.53
2023-02-11T03:17:48.751Z,6.55
2023-02-11T03:20:55.320Z,6.41
2023-02-11T03:24:01.627Z,6.39
2023-02-11T03:27:10.464Z,6.49
2023-02-11T03:30:18.021Z,6.58
2023-02-11T03:33:28.329Z,6.50
2023-02-11T03:36:38.838Z,6.42
2023-02-11T03:39:47.351Z,6.60
2023-02-11T03:42:54.522Z,6.56
2023-02-11T03:45:58.067Z,6.72
2023-02-11T03:49:05.099Z,6.67
2023-02-11T03:52:11.260Z,6.59
2023-02-11T03:55:17.438Z,6.68
2023-02-11T03:58:20.324Z,6.57
2023-02-11T04:01:22.958Z,6.71
2023-02-11T04:04:25.624Z,6.64
2023-02-11T04:07:29.872Z,6.60
2023-02-11T04:10:32.551Z,6.74
2023-02-11T04:13:35.122Z,6.65
2023-02-11T04:16:38.842Z,6.77
2023-02-11T04:19:41.468Z,6.83
2023-02-11T04:22:45.448Z,6.92
2023-02-11T04:25:48.203Z,6.98
2023-02-11T04:28:50.909Z,7.06
2023-02-11T04:31:53.562Z,6.97
2023-02-11T04:34:56.205Z,6.94
2023-02-11T04:38:00.154Z,7.06
2023-02-11T04:41:02.725Z,6.99
2023-02-11T04:44:06.232Z,6.98
2023-02-11T04:47:08.863Z,7.18
2023-02-11T04:50:11.621Z,7.17
2023-02-11T04:53:15.581Z,7.22
2023-02-11T04:56:18.203Z,7.29
2023-02-11T04:59:20.814Z,7.15
2023-02-11T05:02:23.400Z,7.32
2023-02-11T05:05:26.021Z,7.28
2023-02-11T05:08:29.993Z,7.22
2023-02-11T05:11:32.718Z,7.09
2023-02-11T05:14:35.615Z,7.15
2023-02-11T05:17:38.191Z,7.25
2023-02-11T05:20:40.838Z,7.20
2023-02-11T05:23:45.618Z,7.11
2023-02-11T05:26:48.212Z,7.14
2023-02-11T05:29:50.799Z,7.01
2023-02-11T05:32:53.411Z,7.16
2023-02-11T05:35:59.543Z,7.14
2023-02-11T05:39:03.492Z,7.08
2023-02-11T05:42:06.505Z,7.05
2023-02-11T05:45:09.928Z,7.04
2023-02-11T05:48:12.663Z,7.02
2023-02-11T05:51:15.235Z,7.10
2023-02-11T05:54:19.161Z,7.00
2023-02-11T05:57:21.735Z,7.02
2023-02-11T06:00:24.693Z,7.03
2023-02-11T06:03:27.276Z,7.08
2023-02-11T06:06:29.932Z,7.18
2023-02-11T06:09:33.915Z,7.20
2023-02-11T06:12:37.239Z,7.24
2023-02-11T06:15:40.278Z,7.25
2023-02-11T06:18:42.897Z,7.14
2023-02-11T06:21:45.460Z,7.28
2023-02-11T06:25:00.753Z,7.20
2023-02-11T06:28:04.064Z,7.24
2023-02-11T06:31:07.998Z,7.26
2023-02-11T06:34:11.117Z,7.18
2023-02-11T06:37:13.730Z,7.24
2023-02-11T06:40:17.805Z,7.26
2023-02-11T06:43:20.408Z,7.19
2023-02-11T06:46:23.062Z,7.29
2023-02-11T06:49:25.673Z,7.35
2023-02-11T06:52:28.263Z,7.24
2023-02-11T06:55:32.432Z,7.26
2023-02-11T06:58:35.256Z,7.24
2023-02-11T07:01:37.919Z,7.32
2023-02-11T07:04:40.579Z,7.41
2023-02-11T07:07:43.169Z,7.33
2023-02-11T07:10:47.108Z,7.34
2023-02-11T07:13:49.724Z,7.44
2023-02-11T07:16:52.366Z,7.30
2023-02-11T07:19:55.025Z,7.41
2023-02-11T07:22:58.469Z,7.37
2023-02-11T07:26:05.226Z,7.31
2023-02-11T07:29:07.809Z,7.24
2023-02-11T07:32:11.390Z,7.32
2023-02-11T07:35:14.752Z,7.47
2023-02-11T07:38:17.379Z,7.35
2023-02-11T07:41:23.960Z,7.27
2023-02-11T07:44:26.665Z,7.31
2023-02-11T07:47:29.419Z,7.26
2023-02-11T07:50:31.996Z,7.36
2023-02-11T07:53:34.572Z,7.39
2023-02-11T07:56:38.541Z,7.48
2023-02-11T07:59:41.143Z,7.41
2023-02-11T08:02:43.821Z,7.37
2023-02-11T08:05:46.379Z,7.40
2023-02-11T08:08:49.758Z,7.48
2023-02-11T08:11:53.673Z,7.61
2023-02-11T08:14:56.287Z,7.56
2023-02-11T08:17:58.895Z,7.50
2023-02-11T08:21:05.607Z,7.54
2023-02-11T08:24:08.684Z,7.62
2023-02-11T08:27:13.139Z,7.71
2023-02-11T08:30:15.749Z,7.64
2023-02-11T08:33:18.340Z,7.72
2023-02-11T08:36:23.142Z,7.76
2023-02-11T08:39:25.749Z,7.86
2023-02-11T08:42:29.680Z,7.77
2023-02-11T08:45:32.359Z,7.75
2023-02-11T08:48:35.159Z,7.69
2023-02-11T08:51:37.747Z,7.67
2023-02-11T08:54:40.401Z,7.72
2023-02-11T08:57:44.336Z,7.70
2023-02-11T09:00:47.140Z,7.78
2023-02-11T09:03:49.910Z,7.64
2023-02-11T09:06:52.503Z,7.60
2023-02-11T09:09:55.316Z,7.82
2023-02-11T09:12:59.298Z,7.86
2023-02-11T09:16:04.044Z,7.77
2023-02-11T09:19:07.053Z,7.81
2023-02-11T09:22:09.704Z,7.77
2023-02-11T09:25:12.426Z,7.91
2023-02-11T09:28:16.371Z,7.80
2023-02-11T09:31:22.181Z,7.82
2023-02-11T09:34:24.836Z,7.89
2023-02-11T09:37:27.514Z,7.82
2023-02-11T09:40:30.138Z,7.78
2023-02-11T09:43:39.305Z,7.78
2023-02-11T09:46:44.102Z,7.87
2023-02-11T09:49:49.860Z,7.84
2023-02-11T09:52:59.494Z,7.83
2023-02-11T09:56:04.007Z,7.99
2023-02-11T09:59:12.026Z,7.95
2023-02-11T10:02:21.771Z,7.89
2023-02-11T10:05:34.836Z,8.05
2023-02-11T10:08:45.698Z,7.97
2023-02-11T10:11:57.273Z,7.97
2023-02-11T10:15:21.755Z,8.01
2023-02-11T10:18:47.723Z,7.98
2023-02-11T10:22:00.642Z,7.99
2023-02-11T10:25:13.817Z,8.01
2023-02-11T10:28:18.223Z,7.97
2023-02-11T10:31:25.771Z,8.05
2023-02-11T10:34:28.563Z,8.06
2023-02-11T10:37:31.741Z,7.99
2023-02-11T10:40:34.321Z,7.99
2023-02-11T10:43:38.207Z,7.94
2023-02-11T10:46:43.332Z,7.98
2023-02-11T10:49:47.418Z,8.03
2023-02-11T10:52:50.076Z,7.99
2023-02-11T10:55:54.714Z,7.96
2023-02-11T10:59:01.506Z,7.98
2023-02-11T11:02:17.756Z,8.00
2023-02-11T11:05:31.209Z,8.00
2023-02-11T11:08:44.554Z,8.12
2023-02-11T11:11:53.556Z,8.16
2023-02-11T11:14:57.059Z,8.25
2023-02-11T11:18:22.025Z,8.09
2023-02-11T11:21:27.072Z,8.04
2023-02-11T11:24:31.668Z,8.10
2023-02-11T11:27:34.529Z,8.12
2023-02-11T11:30:43.732Z,8.18
2023-02-11T11:33:49.215Z,8.25
2023-02-11T11:36:51.943Z,8.44
2023-02-11T11:40:00.017Z,8.39
2023-02-11T11:43:16.173Z,8.46
2023-02-11T11:46:25.031Z,8.33
2023-02-11T11:49:33.812Z,8.36
2023-02-11T11:52:41.448Z,8.43
2023-02-11T11:55:47.410Z,8.50
2023-02-11T11:58:50.854Z,8.49
2023-02-11T12:02:19.306Z,8.48
2023-02-11T12:05:27.894Z,8.46
2023-02-11T12:08:41.477Z,8.54
2023-02-11T12:12:02.919Z,8.48
2023-02-11T12:15:21.478Z,8.48
2023-02-11T12:19:21.626Z,8.54
2023-02-11T12:22:41.725Z,8.50
2023-02-11T12:25:53.204Z,8.49
2023-02-11T12:29:07.743Z,8.39
2023-02-11T12:32:18.588Z,8.38
2023-02-11T12:35:29.425Z,8.42
2023-02-11T12:39:00.124Z,8.29
2023-02-11T12:42:47.498Z,8.33
2023-02-11T12:46:01.636Z,8.33
2023-02-11T12:49:33.733Z,8.34
2023-02-11T12:52:54.048Z,8.36
2023-02-11T12:56:03.526Z,8.46
2023-02-11T12:59:14.363Z,8.37
2023-02-11T13:02:25.598Z,8.41
2023-02-11T13:05:33.045Z,8.47
2023-02-11T13:08:39.924Z,8.51
2023-02-11T13:11:51.718Z,8.40
2023-02-11T13:15:00.211Z,8.46
2023-02-11T13:18:14.285Z,8.40
2023-02-11T13:21:34.884Z,8.42
2023-02-11T13:24:45.164Z,8.48
2023-02-11T13:27:58.946Z,8.58
2023-02-11T13:31:03.514Z,8.61
2023-02-11T13:34:24.695Z,8.59
2023-02-11T13:37:33.093Z,8.62
2023-02-11T13:40:37.573Z,8.50
2023-02-11T13:43:41.844Z,8.40
2023-02-11T13:46:58.163Z,8.53
2023-02-11T13:50:03.006Z,8.47
2023-02-11T13:53:08.647Z,8.29
2023-02-11T13:56:31.483Z,8.41
2023-02-11T13:59:48.774Z,8.42
2023-02-11T14:03:42.570Z,8.49
2023-02-11T14:07:40.392Z,8.43
2023-02-11T14:10:55.368Z,8.47
2023-02-11T14:14:16.178Z,8.44
2023-02-11T14:17:31.893Z,8.49
2023-02-11T14:20:39.122Z,8.53
2023-02-11T14:23:42.598Z,8.52
2023-02-11T14:26:50.362Z,8.42
2023-02-11T14:30:25.270Z,8.50
2023-02-11T14:34:09.136Z,8.55
2023-02-11T14:37:24.664Z,8.39
2023-02-11T14:40:31.793Z,8.48
2023-02-11T14:43:39.542Z,8.50
2023-02-11T14:46:46.205Z,8.40
2023-02-11T14:49:50.456Z,8.38
2023-02-11T14:52:55.588Z,8.44
2023-02-11T14:55:58.295Z,8.46
2023-02-11T14:59:02.539Z,8.52
2023-02-11T15:02:24.143Z,8.60
2023-02-11T15:05:29.723Z,8.59
2023-02-11T15:08:37.084Z,8.75
2023-02-11T15:11:41.228Z,8.78
2023-02-11T15:14:47.791Z,8.75
2023-02-11T15:17:50.744Z,8.87
2023-02-11T15:20:53.787Z,9.02
2023-02-11T15:24:00.130Z,8.99
2023-02-11T15:27:04.929Z,8.91
2023-02-11T15:30:25.237Z,8.88
2023-02-11T15:33:30.122Z,8.66
2023-02-11T15:36:36.111Z,8.70
2023-02-11T15:39:41.974Z,8.80
2023-02-11T15:42:58.329Z,8.75
2023-02-11T15:46:02.572Z,8.60
2023-02-11T15:49:06.460Z,8.68
2023-02-11T15:52:09.296Z,8.57
2023-02-11T15:55:16.859Z,8.61
2023-02-11T15:58:20.321Z,8.74
2023-02-11T16:01:33.503Z,8.60
2023-02-11T16:04:38.300Z,8.67
2023-02-11T16:07:46.359Z,8.55
2023-02-11T16:10:58.659Z,8.65
2023-02-11T16:14:04.131Z,8.49
2023-02-11T16:17:12.035Z,8.72
2023-02-11T16:20:19.850Z,8.61
2023-02-11T16:23:26.466Z,8.56
2023-02-11T16:26:35.549Z,8.40
2023-02-11T16:29:38.444Z,8.40
2023-02-11T16:32:41.360Z,8.41
2023-02-11T16:35:47.457Z,8.23
2023-02-11T16:38:50.058Z,8.22
2023-02-11T16:41:54.008Z,8.24
2023-02-11T16:44:56.648Z,8.07
2023-02-11T16:48:00.023Z,8.27
2023-02-11T16:51:02.646Z,8.04
2023-02-11T16:54:05.707Z,8.12
2023-02-11T16:57:15.351Z,8.15
2023-02-11T17:00:19.149Z,8.08
2023-02-11T17:03:24.592Z,8.09
2023-02-11T17:06:28.628Z,8.17
2023-02-11T17:09:31.436Z,8.21
2023-02-11T17:12:35.347Z,8.22
2023-02-11T17:15:37.960Z,8.27
2023-02-11T17:18:40.574Z,8.21
2023-02-11T17:21:43.747Z,7.99
2023-02-11T17:24:46.552Z,8.08
2023-02-11T17:27:52.781Z,8.13
2023-02-11T17:30:55.781Z,8.37
2023-02-11T17:33:58.354Z,8.25
2023-02-11T17:37:03.039Z,8.34
2023-02-11T17:40:06.754Z,8.06
2023-02-11T17:43:10.804Z,8.02
2023-02-11T17:46:14.159Z,8.03
2023-02-11T17:49:16.855Z,8.21
2023-02-11T17:52:20.806Z,8.17
2023-02-11T17:55:23.409Z,8.34
2023-02-11T17:58:27.365Z,8.41
2023-02-11T18:01:30.586Z,8.34
2023-02-11T18:04:33.517Z,8.20
2023-02-11T18:07:36.118Z,8.25
2023-02-11T18:10:42.198Z,8.19
2023-02-11T18:13:51.335Z,8.22
2023-02-11T18:16:54.081Z,8.26
2023-02-11T18:19:58.030Z,8.17
2023-02-11T18:23:00.645Z,8.18
2023-02-11T18:26:03.744Z,7.98
2023-02-11T18:29:07.842Z,7.91
2023-02-11T18:32:10.535Z,8.03
2023-02-11T18:35:15.125Z,8.25
2023-02-11T18:38:18.532Z,8.19
2023-02-11T18:41:21.676Z,8.20
2023-02-11T18:44:25.628Z,8.26
2023-02-11T18:47:29.056Z,8.19
2023-02-11T18:50:31.790Z,8.26
2023-02-11T18:53:34.394Z,8.18
2023-02-11T18:56:37.036Z,8.20
2023-02-11T18:59:40.980Z,8.15
2023-02-11T19:02:43.596Z,8.31
2023-02-11T19:05:48.622Z,8.31
2023-02-11T19:08:51.735Z,8.25
2023-02-11T19:11:55.328Z,8.31
2023-02-11T19:15:00.534Z,8.24
2023-02-11T19:18:03.187Z,8.21
2023-02-11T19:21:10.377Z,8.45
2023-02-11T19:24:15.414Z,8.46
2023-02-11T19:27:18.007Z,8.26
2023-02-11T19:30:22.266Z,8.17
2023-02-11T19:33:24.855Z,8.17
2023-02-11T19:36:28.087Z,8.31
2023-02-11T19:39:31.295Z,8.25
2023-02-11T19:42:33.883Z,8.41
2023-02-11T19:45:39.289Z,8.29
2023-02-11T19:48:41.936Z,8.35
2023-02-11T19:51:44.751Z,8.24
2023-02-11T19:54:47.360Z,8.09
2023-02-11T19:57:49.959Z,8.19
2023-02-11T20:00:54.096Z,8.22
2023-02-11T20:03:57.778Z,8.18
2023-02-11T20:07:00.432Z,8.33
2023-02-11T20:10:03.230Z,8.39
2023-02-11T20:13:06.012Z,8.44
2023-02-11T20:16:12.290Z,8.33
2023-02-11T20:19:17.671Z,8.48
2023-02-11T20:22:20.500Z,8.47
2023-02-11T20:25:23.084Z,8.38
2023-02-11T20:28:25.765Z,8.48
2023-02-11T20:31:31.984Z,8.58
2023-02-11T20:34:35.213Z,8.60
2023-02-11T20:37:38.621Z,8.68
2023-02-11T20:40:41.241Z,8.82
2023-02-11T20:43:45.843Z,8.80
2023-02-11T20:46:49.862Z,8.69
2023-02-11T20:49:55.153Z,8.71
2023-02-11T20:52:58.037Z,8.75
2023-02-11T20:56:02.585Z,8.69
2023-02-11T20:59:06.110Z,8.50
2023-02-11T21:02:12.316Z,8.56
2023-02-11T21:05:14.939Z,8.73
2023-02-11T21:08:17.501Z,8.68
2023-02-11T21:11:20.556Z,8.43
2023-02-11T21:14:25.405Z,8.44
2023-02-11T21:17:29.733Z,8.31
2023-02-11T21:20:32.336Z,8.25
2023-02-11T21:23:35.726Z,8.28
2023-02-11T21:26:39.036Z,8.20
2023-02-11T21:29:53.419Z,8.22
2023-02-11T21:32:58.829Z,8.11
2023-02-11T21:36:03.142Z,8.39
2023-02-11T21:39:05.962Z,8.50
2023-02-11T21:42:08.623Z,8.58
2023-02-11T21:45:11.391Z,8.44
2023-02-11T21:48:15.836Z,8.38
2023-02-11T21:51:20.426Z,8.51
2023-02-11T21:54:25.691Z,8.37
2023-02-11T21:57:28.491Z,8.34
2023-02-11T22:00:31.591Z,8.39
2023-02-11T22:03:35.554Z,8.42
2023-02-11T22:06:38.225Z,8.41
2023-02-11T22:09:41.051Z,8.30
2023-02-11T22:12:43.611Z,8.44
2023-02-11T22:15:46.188Z,8.18
2023-02-11T22:18:50.216Z,8.40
2023-02-11T22:21:52.834Z,8.56
2023-02-11T22:24:55.623Z,8.59
2023-02-11T22:27:58.208Z,8.58
2023-02-11T22:31:01.257Z,8.52
2023-02-11T22:34:06.007Z,8.35
2023-02-11T22:37:08.588Z,8.39
2023-02-11T22:40:12.262Z,8.51
2023-02-11T22:43:14.897Z,8.61
2023-02-11T22:46:19.901Z,8.51
2023-02-11T22:49:23.916Z,8.61
2023-02-11T22:52:28.263Z,8.55
2023-02-11T22:55:30.888Z,8.57
2023-02-11T22:58:33.866Z,8.39
2023-02-11T23:01:36.752Z,8.22
2023-02-11T23:04:40.715Z,8.23
2023-02-11T23:07:43.330Z,8.05
2023-02-11T23:10:45.993Z,8.04
2023-02-11T23:13:49.695Z,8.02
2023-02-11T23:16:52.333Z,8.23
2023-02-11T23:19:56.492Z,7.94
2023-02-11T23:22:59.089Z,7.96
2023-02-11T23:26:02.303Z,7.96
2023-02-11T23:29:04.888Z,8.12
2023-02-11T23:32:07.557Z,7.97
2023-02-11T23:35:11.635Z,8.12
2023-02-11T23:38:14.356Z,8.12
2023-02-11T23:41:17.327Z,8.14
2023-02-11T23:44:19.899Z,8.02
2023-02-11T23:47:22.460Z,8.04
2023-02-11T23:50:26.426Z,7.69
2023-02-11T23:53:29.067Z,7.82
2023-02-11T23:56:31.706Z,7.82
2023-02-11T23:59:34.316Z,7.90
